createdAt,value
2023-03-05T00:01:03.715Z,0.88715
2023-03-05T00:06:05.535Z,0
2023-03-05T00:11:07.297Z,0
2023-03-05T00:16:09.105Z,0
2023-03-05T00:21:10.741Z,0
2023-03-05T00:26:12.398Z,0
2023-03-05T00:31:14.045Z,0.88715
2023-03-05T00:36:15.694Z,0
2023-03-05T00:41:17.513Z,0
2023-03-05T00:46:19.280Z,0
2023-03-05T00:51:20.760Z,0
2023-03-05T00:56:22.283Z,0
2023-03-05T01:01:23.763Z,0
2023-03-05T01:06:25.521Z,0
2023-03-05T01:11:27.128Z,0
2023-03-05T01:16:28.725Z,0
2023-03-05T01:21:30.247Z,0
2023-03-05T01:26:31.739Z,0
2023-03-05T01:31:33.304Z,0
2023-03-05T01:36:34.873Z,0
2023-03-05T01:41:36.382Z,0
2023-03-05T01:46:38.277Z,0
2023-03-05T01:51:40.124Z,0.88715
2023-03-05T01:56:41.843Z,0
2023-03-05T02:01:43.572Z,0
2023-03-05T02:06:45.300Z,0
2023-03-05T02:11:46.956Z,0.88715
2023-03-05T02:16:48.530Z,0
2023-03-05T02:21:50.067Z,0
2023-03-05T02:26:51.549Z,0
2023-03-05T02:31:53.112Z,0
2023-03-05T02:36:54.615Z,0
2023-03-05T02:41:56.123Z,0
2023-03-05T02:46:57.532Z,0.88715
2023-03-05T02:51:58.984Z,0
2023-03-05T02:57:00.492Z,0
2023-03-05T03:02:01.954Z,0
2023-03-05T03:07:04.092Z,0
2023-03-05T03:12:05.580Z,0
2023-03-05T03:17:07.052Z,0
2023-03-05T03:22:08.691Z,0.88715
2023-03-05T03:27:10.228Z,0
2023-03-05T03:32:11.765Z,0.88715
2023-03-05T03:37:13.295Z,0.88715
2023-03-05T03:42:14.786Z,1.16185
2023-03-05T03:47:16.257Z,0.88885
2023-03-05T03:52:17.723Z,1.6592
2023-03-05T03:57:19.366Z,4.4078
2023-03-05T04:02:20.862Z,13.88705
2023-03-05T04:07:22.408Z,23.1267
2023-03-05T04:12:24.071Z,35.42785
2023-03-05T04:17:25.504Z,51.10425
2023-03-05T04:22:27.063Z,72.7002
2023-03-05T04:27:28.553Z,97.96615
2023-03-05T04:32:30.099Z,121.7565
2023-03-05T04:37:31.625Z,158.97185
2023-03-05T04:42:33.100Z,180.0506
2023-03-05T04:47:34.611Z,202.5498
2023-03-05T04:52:36.098Z,221.93235
2023-03-05T04:57:37.841Z,233.55085
2023-03-05T05:02:39.379Z,268.53565
2023-03-05T05:07:41.177Z,314.78905
2023-03-05T05:12:42.668Z,370.1528
2023-03-05T05:17:44.127Z,406.8528
2023-03-05T05:22:45.671Z,409.52825
2023-03-05T05:27:47.204Z,429.87105
2023-03-05T05:32:48.688Z,452.14965
2023-03-05T05:37:50.360Z,459.6931
2023-03-05T05:42:51.857Z,473.59915
2023-03-05T05:47:53.418Z,481.8804
2023-03-05T05:52:54.930Z,475.61095
2023-03-05T05:57:56.426Z,485.66255
2023-03-05T06:02:57.984Z,521.2197
2023-03-05T06:07:59.535Z,524.3192
2023-03-05T06:13:01.049Z,523.4901
2023-03-05T06:18:02.548Z,516.0588
2023-03-05T06:23:04.030Z,517.9223
2023-03-05T06:28:05.521Z,545.18105
2023-03-05T06:33:07.278Z,553.16755
2023-03-05T06:38:09.180Z,560.28695
2023-03-05T06:43:10.940Z,564.1794
2023-03-05T06:48:12.703Z,588.48695
2023-03-05T06:53:14.513Z,598.42825
2023-03-05T06:58:16.168Z,608.7936
2023-03-05T07:03:17.892Z,616.96455
2023-03-05T07:08:19.680Z,620.91215
2023-03-05T07:13:21.476Z,636.10935
2023-03-05T07:18:23.253Z,640.8499
2023-03-05T07:23:25.037Z,659.3482
2023-03-05T07:28:26.783Z,667.75875
2023-03-05T07:33:28.274Z,684.17295
2023-03-05T07:38:29.834Z,692.89725
2023-03-05T07:43:31.596Z,701.12335
2023-03-05T07:48:33.392Z,724.7121
2023-03-05T07:53:35.167Z,748.17155
2023-03-05T07:58:36.941Z,773.3272
2023-03-05T08:03:38.646Z,776.24225
2023-03-05T08:08:40.441Z,790.038
2023-03-05T08:13:42.186Z,802.1927
2023-03-05T08:18:43.987Z,819.67745
2023-03-05T08:23:45.976Z,856.86035
2023-03-05T08:28:47.715Z,885.2981
2023-03-05T08:33:49.163Z,915.8561
2023-03-05T08:38:50.771Z,989.4841
2023-03-05T08:43:52.313Z,1015.6723
2023-03-05T08:48:53.806Z,1005.16235
2023-03-05T08:53:55.354Z,1116.16745
2023-03-05T08:58:56.925Z,1116.36905
2023-03-05T09:03:58.428Z,1159.06275
2023-03-05T09:08:59.862Z,606.6414
2023-03-05T09:14:01.373Z,1214.32175
2023-03-05T09:19:03.017Z,1115.97745
2023-03-05T09:24:04.688Z,1174.70855
2023-03-05T09:29:06.223Z,1213.818
2023-03-05T09:34:07.964Z,1252.34535
2023-03-05T09:39:09.857Z,1328.3295
2023-03-05T09:44:11.585Z,1336.59175
2023-03-05T09:49:13.340Z,918.30775
2023-03-05T09:54:15.108Z,1379.8388
2023-03-05T09:59:16.861Z,1460.5978
2023-03-05T10:04:18.726Z,1540.866
2023-03-05T10:09:20.707Z,1590.2532
2023-03-05T10:14:22.471Z,1584.66455
2023-03-05T10:19:24.224Z,696.14185
2023-03-05T10:24:26.015Z,1701.3876
2023-03-05T10:29:27.796Z,1757.45115
2023-03-05T10:34:29.438Z,834.52155
2023-03-05T10:39:31.299Z,849.4963
2023-03-05T10:44:32.961Z,864.3246
2023-03-05T10:49:34.714Z,1919.84365
2023-03-05T10:54:36.481Z,1000.6012
2023-03-05T10:59:38.105Z,1009.8733
2023-03-05T11:04:39.720Z,882.58515
2023-03-05T11:09:41.559Z,772.0384
2023-03-05T11:14:43.216Z,1169.64735
2023-03-05T11:19:44.851Z,1764.5117
2023-03-05T11:24:46.704Z,896.82395
2023-03-05T11:29:48.401Z,731.7254
2023-03-05T11:34:50.247Z,613.9128
2023-03-05T11:39:51.789Z,670.1418
2023-03-05T11:44:53.288Z,862.01805
2023-03-05T11:49:54.792Z,1887.6604
2023-03-05T11:54:56.327Z,2374.7508
2023-03-05T11:59:57.826Z,2367.7797
2023-03-05T12:04:59.573Z,2483.13375
2023-03-05T12:10:01.464Z,2059.7778
2023-03-05T12:15:03.208Z,1083.4559
2023-03-05T12:20:04.925Z,1885.32375
2023-03-05T12:25:06.743Z,2706.17465
2023-03-05T12:30:08.471Z,2310.9617
2023-03-05T12:35:10.137Z,1659.1741
2023-03-05T12:40:11.966Z,1006.84425
2023-03-05T12:45:13.708Z,2010.84525
2023-03-05T12:50:15.465Z,1360.9536
2023-03-05T12:55:17.266Z,2529.9864
2023-03-05T13:00:19.012Z,1118.35545
2023-03-05T13:05:20.777Z,792.7427
2023-03-05T13:10:22.594Z,659.20225
2023-03-05T13:15:24.321Z,2371.7352
2023-03-05T13:20:26.045Z,1114.3105
2023-03-05T13:25:27.838Z,864.47105
2023-03-05T13:30:29.598Z,750.12315
2023-03-05T13:35:31.437Z,684.6698
2023-03-05T13:40:33.277Z,831.39565
2023-03-05T13:45:35.192Z,2035.4304
2023-03-05T13:50:36.952Z,2206.962
2023-03-05T13:55:38.731Z,565.95395
2023-03-05T14:00:40.512Z,1930.07885
2023-03-05T14:05:42.236Z,2407.481
2023-03-05T14:10:44.032Z,2400.1906
2023-03-05T14:15:45.814Z,715.7946
2023-03-05T14:20:47.596Z,2206.30255
2023-03-05T14:25:49.377Z,2019.5946
2023-03-05T14:30:51.192Z,1725.43015
2023-03-05T14:35:52.801Z,2198.84855
2023-03-05T14:40:54.506Z,2130.16825
2023-03-05T14:45:56.318Z,2109.82545
2023-03-05T14:50:57.784Z,2029.91455
2023-03-05T14:55:59.659Z,1926.4909
2023-03-05T15:01:01.379Z,1852.1135
2023-03-05T15:06:03.144Z,780.91705
2023-03-05T15:11:05.090Z,856.29455
2023-03-05T15:16:06.772Z,1073.64205
2023-03-05T15:21:08.534Z,1242.1367
2023-03-05T15:26:10.486Z,666.52695
2023-03-05T15:31:12.280Z,384.1367
2023-03-05T15:36:14.020Z,308.19055
2023-03-05T15:41:15.842Z,274.42275
2023-03-05T15:46:17.597Z,237.85205
2023-03-05T15:51:19.414Z,177.1031
2023-03-05T15:56:20.992Z,130.3515
2023-03-05T16:01:22.744Z,97.85585
2023-03-05T16:06:24.461Z,77.4769
2023-03-05T16:11:26.500Z,68.9009
2023-03-05T16:16:28.032Z,58.55455
2023-03-05T16:21:29.524Z,42.76785
2023-03-05T16:26:30.996Z,23.0164
2023-03-05T16:31:32.883Z,12.97735
2023-03-05T16:36:34.449Z,6.69605
2023-03-05T16:41:36.202Z,2.4888
2023-03-05T16:46:37.748Z,1.53075
2023-03-05T16:51:39.239Z,0.4148
2023-03-05T16:56:40.714Z,1.16185
2023-03-05T17:01:42.155Z,0.88715
2023-03-05T17:06:43.656Z,0.88715
2023-03-05T17:11:45.309Z,0.88715
2023-03-05T17:16:46.860Z,0.88715
2023-03-05T17:21:48.300Z,0.88715
2023-03-05T17:26:49.850Z,0
2023-03-05T17:31:51.433Z,0
2023-03-05T17:36:52.881Z,0
2023-03-05T17:41:54.386Z,0
2023-03-05T17:46:55.982Z,0
2023-03-05T17:51:57.394Z,0
2023-03-05T17:56:58.853Z,0
2023-03-05T18:02:00.416Z,0
2023-03-05T18:07:01.964Z,0.88715
2023-03-05T18:12:03.433Z,0
2023-03-05T18:17:05.025Z,0.88715
2023-03-05T18:22:06.512Z,0
2023-03-05T18:27:08.109Z,0
2023-03-05T18:32:10.224Z,0
2023-03-05T18:37:11.834Z,0
2023-03-05T18:42:13.451Z,0
2023-03-05T18:47:14.908Z,0
2023-03-05T18:52:16.464Z,0
2023-03-05T18:57:17.910Z,0
2023-03-05T19:02:19.404Z,0.88715
2023-03-05T19:07:20.936Z,0
2023-03-05T19:12:22.447Z,0.88715
2023-03-05T19:17:23.883Z,0
2023-03-05T19:22:25.681Z,0
2023-03-05T19:27:27.403Z,0
2023-03-05T19:37:29.366Z,0
2023-03-05T19:42:30.840Z,0
2023-03-05T19:47:32.343Z,0
2023-03-05T19:52:33.923Z,0
2023-03-05T19:57:35.370Z,0
2023-03-05T20:02:36.897Z,0
2023-03-05T20:07:38.332Z,0
2023-03-05T20:12:40.056Z,0
2023-03-05T20:17:41.502Z,0.88715
2023-03-05T20:22:43.005Z,0.88715
2023-03-05T20:27:44.478Z,0
2023-03-05T20:32:45.940Z,0
2023-03-05T20:37:47.497Z,0
2023-03-05T20:42:48.967Z,0
2023-03-05T20:47:50.437Z,0
2023-03-05T20:52:51.924Z,0
2023-03-05T20:57:53.611Z,0
2023-03-05T21:02:55.025Z,0
2023-03-05T21:07:56.556Z,0
2023-03-05T21:13:00.607Z,0
2023-03-05T21:18:02.372Z,0
2023-03-05T21:23:03.851Z,0
2023-03-05T21:28:05.314Z,0
2023-03-05T21:33:06.816Z,0
2023-03-05T21:38:08.300Z,0.88715
2023-03-05T21:43:09.943Z,0
2023-03-05T21:48:11.353Z,0
2023-03-05T21:53:12.818Z,0.88715
2023-03-05T21:58:14.273Z,0
2023-03-05T22:03:15.741Z,0
2023-03-05T22:08:17.253Z,0.88715
2023-03-05T22:13:18.793Z,0
2023-03-05T22:18:20.356Z,0
2023-03-05T22:23:21.901Z,0
2023-03-05T22:28:23.466Z,0
2023-03-05T22:33:24.956Z,0
2023-03-05T22:38:26.512Z,0
2023-03-05T22:43:28.022Z,0
2023-03-05T22:48:29.582Z,0
2023-03-05T22:53:31.133Z,0
2023-03-05T22:58:32.722Z,0
2023-03-05T23:03:34.244Z,0
2023-03-05T23:08:35.769Z,0
2023-03-05T23:13:37.274Z,0
2023-03-05T23:18:38.814Z,0
2023-03-05T23:23:40.330Z,0.88715
2023-03-05T23:28:41.768Z,0
2023-03-05T23:33:43.278Z,0
2023-03-05T23:38:44.757Z,0
2023-03-05T23:43:46.337Z,0
2023-03-05T23:48:47.803Z,0
2023-03-05T23:53:49.397Z,0
2023-03-05T23:58:50.934Z,0
